createdAt,value
2022-10-19T04:19:32.455Z,12.03
2022-10-19T04:22:35.435Z,12.09
2022-10-19T04:25:38.054Z,12.05
2022-10-19T04:28:41.209Z,12.05
2022-10-19T04:31:43.907Z,12.01
2022-10-19T04:34:46.664Z,11.88
2022-10-19T04:37:49.107Z,11.78
2022-10-19T04:40:52.460Z,11.89
2022-10-19T04:43:57.964Z,11.83
2022-10-19T04:47:00.761Z,11.73
2022-10-19T04:50:03.582Z,11.74
2022-10-19T04:53:06.479Z,11.67
2022-10-19T04:56:13.968Z,11.64
2022-10-19T04:59:16.667Z,11.66
2022-10-19T05:02:19.152Z,11.64
2022-10-19T05:05:21.938Z,11.65
2022-10-19T05:08:24.596Z,11.58
2022-10-19T05:11:28.095Z,11.48
2022-10-19T05:14:35.042Z,11.59
2022-10-19T05:17:39.522Z,11.49
2022-10-19T05:20:42.169Z,11.42
2022-10-19T05:23:52.520Z,11.39
2022-10-19T05:26:55.041Z,11.37
2022-10-19T05:29:57.900Z,11.33
2022-10-19T05:33:00.460Z,11.24
2022-10-19T05:36:15.587Z,11.23
2022-10-19T05:39:18.638Z,11.25
2022-10-19T05:42:21.394Z,11.22
2022-10-19T05:45:23.920Z,11.19
2022-10-19T05:48:27.996Z,11.22
2022-10-19T05:51:30.738Z,11.28
2022-10-19T05:54:33.548Z,11.34
2022-10-19T05:57:36.437Z,11.41
2022-10-19T06:00:42.865Z,11.47
2022-10-19T06:03:47.191Z,11.60
2022-10-19T06:06:49.700Z,11.66
2022-10-19T06:09:52.611Z,11.77
2022-10-19T06:12:55.190Z,11.81
2022-10-19T06:15:57.947Z,11.89
2022-10-19T06:19:00.499Z,11.99
2022-10-19T06:22:03.620Z,12.12
2022-10-19T06:25:06.738Z,12.25
2022-10-19T06:28:10.245Z,12.36
2022-10-19T06:31:13.556Z,12.42
2022-10-19T06:34:16.559Z,12.57
2022-10-19T06:37:19.314Z,12.73
2022-10-19T06:40:23.021Z,12.83
2022-10-19T06:43:25.754Z,12.90
2022-10-19T06:46:28.586Z,13.03
2022-10-19T06:49:31.245Z,13.11
2022-10-19T06:52:35.667Z,13.25
2022-10-19T06:55:38.363Z,13.45
2022-10-19T06:58:42.631Z,13.58
2022-10-19T07:01:45.274Z,13.71
2022-10-19T07:04:48.093Z,13.91
2022-10-19T07:07:50.692Z,14.05
2022-10-19T07:10:59.177Z,14.18
2022-10-19T07:14:01.820Z,14.36
2022-10-19T07:17:10.853Z,14.44
2022-10-19T07:20:13.514Z,14.47
2022-10-19T07:23:16.340Z,14.59
2022-10-19T07:26:23.407Z,14.73
2022-10-19T07:29:26.586Z,14.81
2022-10-19T07:32:29.425Z,14.98
2022-10-19T07:35:32.496Z,15.06
2022-10-19T07:38:35.375Z,15.09
2022-10-19T07:41:38.570Z,15.26
2022-10-19T07:44:41.077Z,15.41
2022-10-19T07:47:43.829Z,15.58
2022-10-19T07:50:49.170Z,15.67
2022-10-19T07:53:53.440Z,15.79
2022-10-19T07:56:56.100Z,15.83
2022-10-19T07:59:58.987Z,15.89
2022-10-19T08:03:57.519Z,15.83
2022-10-19T08:06:27.635Z,15.97
2022-10-19T08:12:53.300Z,16.17
2022-10-19T08:15:55.850Z,16.15
2022-10-19T08:19:06.374Z,16.32
2022-10-19T08:22:09.508Z,16.40
2022-10-19T08:25:14.733Z,16.65
2022-10-19T08:28:17.300Z,16.75
2022-10-19T08:31:22.464Z,16.82
2022-10-19T08:34:25.396Z,16.88
2022-10-19T08:41:40.090Z,17.04
2022-10-19T08:44:55.016Z,17.39
2022-10-19T08:56:51.305Z,17.97
2022-10-19T10:28:47.110Z,21.37
2022-10-19T10:31:58.910Z,22.01
2022-10-19T10:35:18.618Z,22.30
2022-10-19T10:38:33.289Z,22.08
2022-10-19T10:41:40.746Z,21.47
2022-10-19T10:44:50.722Z,21.40
2022-10-19T10:47:53.907Z,21.56
2022-10-19T10:50:59.316Z,21.67
2022-10-19T10:54:20.081Z,21.54
2022-10-19T10:57:25.719Z,21.54
2022-10-19T11:00:31.548Z,21.44
2022-10-19T11:03:46.424Z,21.92
2022-10-19T11:06:57.157Z,21.61
2022-10-19T11:10:09.817Z,21.89
2022-10-19T11:13:45.271Z,22.14
2022-10-19T11:16:52.317Z,22.39
2022-10-19T11:19:55.114Z,22.96
2022-10-19T11:23:20.356Z,23.17
2022-10-19T11:26:47.707Z,23.26
2022-10-19T11:30:17.845Z,24.23
2022-10-19T11:33:31.923Z,24.60
2022-10-19T11:36:57.267Z,24.62
2022-10-19T11:40:13.848Z,24.81
2022-10-19T11:43:46.164Z,25.57
2022-10-19T11:46:54.848Z,26.22
2022-10-19T11:50:16.929Z,28.37
2022-10-19T11:53:28.701Z,29.86
2022-10-19T11:56:51.501Z,29.41
2022-10-19T12:00:39.120Z,29.72
2022-10-19T12:03:54.725Z,30.68
2022-10-19T12:07:28.598Z,30.48
2022-10-19T12:11:07.499Z,30.32
2022-10-19T12:14:22.154Z,30.85
2022-10-19T12:17:31.166Z,32.44
2022-10-19T12:20:51.008Z,31.75
2022-10-19T12:23:56.144Z,32.34
2022-10-19T12:27:00.268Z,31.38
2022-10-19T12:30:08.394Z,30.32
2022-10-19T12:33:20.650Z,30.88
2022-10-19T12:36:32.125Z,30.23
2022-10-19T12:39:37.475Z,28.70
2022-10-19T12:43:11.056Z,26.77
2022-10-19T12:46:29.500Z,24.51
2022-10-19T12:49:45.836Z,23.46
2022-10-19T12:52:52.297Z,22.45
2022-10-19T12:56:06.156Z,21.92
2022-10-19T12:59:33.533Z,21.06
2022-10-19T13:02:40.153Z,20.42
2022-10-19T13:05:42.793Z,19.89
2022-10-19T13:08:57.609Z,19.65
2022-10-19T13:12:19.571Z,19.64
2022-10-19T13:15:34.346Z,19.39
2022-10-19T13:19:03.944Z,19.35
2022-10-19T13:22:33.391Z,18.99
2022-10-19T13:25:37.757Z,18.90
2022-10-19T13:28:53.307Z,18.77
2022-10-19T13:31:55.875Z,18.85
2022-10-19T13:35:38.674Z,18.70
2022-10-19T13:38:59.594Z,18.57
2022-10-19T13:42:02.785Z,18.43
2022-10-19T13:45:05.818Z,18.18
2022-10-19T13:48:34.911Z,18.17
2022-10-19T13:51:49.606Z,18.17
2022-10-19T13:55:10.966Z,18.02
2022-10-19T13:58:51.116Z,17.89
2022-10-19T14:02:23.758Z,17.87
2022-10-19T14:05:41.396Z,17.79
2022-10-19T14:09:05.912Z,17.76
2022-10-19T14:12:16.551Z,17.63
2022-10-19T14:15:28.654Z,17.49
2022-10-19T14:18:33.998Z,17.47
2022-10-19T14:21:37.063Z,17.42
2022-10-19T14:24:39.900Z,17.38
2022-10-19T14:27:42.936Z,17.33
2022-10-19T14:30:55.155Z,17.27
2022-10-19T14:34:02.657Z,17.13
2022-10-19T14:37:13.120Z,17.07
2022-10-19T14:40:26.557Z,17.00
2022-10-19T14:43:32.724Z,16.90
2022-10-19T14:46:35.444Z,16.87
2022-10-19T14:49:38.435Z,16.76
2022-10-19T14:52:41.614Z,16.66
2022-10-19T14:55:45.030Z,16.59
2022-10-19T14:58:55.960Z,16.53
2022-10-19T15:02:03.857Z,16.50
2022-10-19T15:05:19.208Z,16.41
2022-10-19T15:08:48.621Z,16.37
2022-10-19T15:11:53.606Z,16.21
2022-10-19T15:14:57.828Z,16.18
2022-10-19T15:18:00.365Z,16.06
2022-10-19T15:21:18.418Z,15.95
2022-10-19T15:24:29.895Z,15.85
2022-10-19T15:27:36.995Z,15.83
2022-10-19T15:30:41.302Z,15.69
2022-10-19T15:33:51.467Z,15.55
2022-10-19T15:36:59.282Z,15.47
2022-10-19T15:40:10.339Z,15.45
2022-10-19T15:43:32.920Z,15.37
2022-10-19T15:47:12.427Z,15.24
2022-10-19T15:50:32.423Z,15.10
2022-10-19T15:53:35.142Z,15.01
